Time;durP1;ratioP1;P1;durP2;ratioP2;P2;SDS_P1;SDS_P2;PMS_P1;PMS_P2;Temp;Humidity;BMP_temperature;BMP_pressure;BME280_temperature;BME280_humidity;BME280_pressure;Samples;Min_cycle;Max_cycle;Signal;HPM_P1;HPM_P2
2023/05/18 00:02:00;;;;;;;10.38;4.35;;;;;;;7.57;85.68;102730.97;5034094;28;20022;-71
2023/05/18 00:04:27;;;;;;;7.32;3.70;;;;;;;7.59;87.16;102740.56;5033102;28;20025;-71
2023/05/18 00:06:55;;;;;;;14.95;4.18;;;;;;;7.56;87.84;102737.03;5033800;28;20112;-71
2023/05/18 00:09:25;;;;;;;9.45;3.83;;;;;;;7.54;86.93;102736.97;5040793;28;20049;-71
2023/05/18 00:11:51;;;;;;;15.80;4.47;;;;;;;7.46;86.74;102738.56;5033926;28;20037;-71
2023/05/18 00:14:16;;;;;;;10.13;3.92;;;;;;;7.43;87.55;102738.50;5034028;28;20044;-71
2023/05/18 00:16:42;;;;;;;9.35;3.70;;;;;;;7.37;87.95;102743.56;5041209;28;20392;-71
2023/05/18 00:19:07;;;;;;;13.45;3.72;;;;;;;7.31;87.75;102735.66;5034054;28;20033;-71
2023/05/18 00:21:34;;;;;;;13.35;4.30;;;;;;;7.31;87.76;102738.25;5035235;28;20400;-71
2023/05/18 00:23:59;;;;;;;10.45;4.07;;;;;;;7.23;89.00;102731.19;5032678;28;20032;-71
2023/05/18 00:26:25;;;;;;;9.50;4.05;;;;;;;7.27;88.70;102738.19;5036840;28;20021;-71
2023/05/18 00:28:51;;;;;;;9.20;4.00;;;;;;;7.17;87.59;102745.75;5045243;28;20361;-71
2023/05/18 00:31:16;;;;;;;12.98;4.13;;;;;;;7.08;89.21;102741.22;5037987;28;20025;-71
2023/05/18 00:33:44;;;;;;;10.52;3.80;;;;;;;7.12;89.62;102749.94;5043046;28;20473;-71
2023/05/18 00:36:09;;;;;;;10.82;3.80;;;;;;;7.10;88.90;102741.28;5034472;28;20056;-71
2023/05/18 00:38:35;;;;;;;11.63;4.72;;;;;;;7.05;89.53;102746.34;5032944;28;20026;-71
2023/05/18 00:41:00;;;;;;;8.25;3.78;;;;;;;6.97;88.28;102741.00;5037705;28;20181;-71
2023/05/18 00:43:25;;;;;;;11.15;3.70;;;;;;;6.90;88.58;102740.81;5035449;28;20097;-72
2023/05/18 00:45:51;;;;;;;9.52;3.90;;;;;;;6.97;89.92;102750.50;5040739;28;20037;-71
2023/05/18 00:48:16;;;;;;;9.48;3.80;;;;;;;6.99;90.34;102752.28;5039685;28;20074;-71
2023/05/18 00:50:41;;;;;;;12.55;4.20;;;;;;;6.86;90.30;102746.78;5034260;28;20042;-71
2023/05/18 00:53:09;;;;;;;9.80;4.03;;;;;;;6.87;90.73;102752.03;5036513;28;20389;-71
2023/05/18 00:55:35;;;;;;;13.90;4.45;;;;;;;6.76;89.89;102749.16;5033699;28;20026;-71
2023/05/18 00:58:01;;;;;;;7.72;3.80;;;;;;;6.72;90.10;102749.06;5046766;28;20025;-71
2023/05/18 01:00:27;;;;;;;11.52;3.88;;;;;;;6.70;91.09;102745.56;5036337;28;20033;-71
2023/05/18 01:02:53;;;;;;;13.23;4.38;;;;;;;6.70;91.42;102758.53;5032773;28;20504;-71
2023/05/18 01:05:20;;;;;;;12.13;4.07;;;;;;;6.69;91.54;102752.47;5035685;28;20029;-71
2023/05/18 01:07:47;;;;;;;15.57;4.10;;;;;;;6.67;92.54;102753.25;5036410;28;20033;-71
2023/05/18 01:10:15;;;;;;;7.05;3.85;;;;;;;6.63;92.51;102752.31;5042592;28;20021;-70
2023/05/18 01:12:55;;;;;;;11.82;4.13;;;;;;;6.66;92.38;102755.00;5036548;28;20547;-71
2023/05/18 01:15:42;;;;;;;10.55;4.00;;;;;;;6.57;91.78;102755.66;5028732;28;20030;-70
2023/05/18 01:18:27;;;;;;;12.18;3.83;;;;;;;6.50;92.52;102751.16;5033727;28;20033;-70
2023/05/18 01:21:26;;;;;;;11.95;4.75;;;;;;;6.50;93.10;102765.84;5045082;28;20029;-71
2023/05/18 01:24:03;;;;;;;12.13;3.80;;;;;;;6.48;92.53;102763.22;5031143;28;20033;-71
2023/05/18 01:26:36;;;;;;;13.00;5.00;;;;;;;6.37;92.67;102762.06;5034450;28;20077;-71
2023/05/18 01:29:05;;;;;;;11.53;4.33;;;;;;;6.31;92.89;102764.50;5041101;28;20029;-71
2023/05/18 01:31:31;;;;;;;12.25;4.75;;;;;;;6.18;93.88;102752.09;5041590;28;20300;-71
2023/05/18 01:33:56;;;;;;;9.77;4.43;;;;;;;6.24;93.44;102757.41;5037307;28;20431;-71
2023/05/18 01:36:21;;;;;;;12.30;4.20;;;;;;;6.24;93.92;102760.88;5033349;28;20136;-71
2023/05/18 01:38:47;;;;;;;12.98;4.07;;;;;;;6.24;93.96;102763.47;5038902;28;20033;-70
2023/05/18 01:41:23;;;;;;;11.93;4.38;;;;;;;6.16;93.86;102753.78;5036223;28;20476;-70
2023/05/18 01:43:55;;;;;;;7.00;3.83;;;;;;;6.25;95.43;102762.66;5038194;28;20052;-71
2023/05/18 01:46:45;;;;;;;10.93;4.00;;;;;;;6.23;94.43;102753.97;5040362;28;20033;-70
2023/05/18 01:49:46;;;;;;;12.18;4.47;;;;;;;6.23;94.27;102759.13;5033912;28;20029;-70
2023/05/18 01:52:19;;;;;;;12.15;4.28;;;;;;;6.22;94.24;102765.16;5036059;28;20045;-70
2023/05/18 01:54:49;;;;;;;9.85;4.40;;;;;;;6.13;95.11;102744.22;5043448;28;20029;-70
2023/05/18 01:57:15;;;;;;;9.07;4.35;;;;;;;6.19;95.09;102754.72;5031877;28;20124;-71
2023/05/18 01:59:41;;;;;;;12.07;4.85;;;;;;;6.19;95.69;102757.31;5037205;28;20025;-71
2023/05/18 02:02:07;;;;;;;8.38;4.20;;;;;;;6.19;95.18;102754.72;5037820;28;20037;-71
2023/05/18 02:04:34;;;;;;;9.57;4.68;;;;;;;6.17;95.85;102756.38;5048886;28;20036;-70
2023/05/18 02:06:59;;;;;;;9.32;3.85;;;;;;;6.12;95.53;102757.13;5036900;28;20366;-71
2023/05/18 02:09:24;;;;;;;8.07;4.18;;;;;;;6.07;96.27;102750.09;5032541;28;20128;-70
2023/05/18 02:11:50;;;;;;;9.50;3.83;;;;;;;6.08;96.51;102750.97;5040666;28;20117;-71
2023/05/18 02:14:15;;;;;;;7.85;4.50;;;;;;;6.07;96.93;102755.28;5032234;28;20428;-70
2023/05/18 02:16:40;;;;;;;8.65;4.20;;;;;;;6.01;97.65;102743.88;5032233;28;20469;-70
2023/05/18 02:19:06;;;;;;;10.73;5.10;;;;;;;6.04;97.55;102759.50;5038956;28;20025;-70
2023/05/18 02:21:33;;;;;;;11.30;4.07;;;;;;;5.97;97.77;102735.16;5044770;28;20457;-70
2023/05/18 02:23:58;;;;;;;8.32;4.45;;;;;;;5.97;97.85;102742.06;5032840;28;20021;-70
2023/05/18 02:26:25;;;;;;;8.60;4.70;;;;;;;5.97;98.69;102748.13;5041860;28;20029;-70
2023/05/18 02:28:50;;;;;;;10.90;4.53;;;;;;;6.00;98.17;102739.56;5047190;28;20025;-71
2023/05/18 02:31:15;;;;;;;10.25;4.50;;;;;;;5.96;97.70;102740.31;5043945;28;20036;-71
2023/05/18 02:33:41;;;;;;;17.60;4.65;;;;;;;5.87;97.36;102735.75;5041891;28;20495;-71
2023/05/18 02:36:11;;;;;;;12.10;4.72;;;;;;;5.82;98.99;102738.22;5039516;28;20400;-71
2023/05/18 02:38:42;;;;;;;10.70;4.60;;;;;;;5.76;98.50;102745.81;5041813;28;20389;-71
2023/05/18 02:41:10;;;;;;;12.90;5.20;;;;;;;5.69;98.59;102740.41;5040679;28;20366;-70
2023/05/18 02:43:36;;;;;;;14.15;5.28;;;;;;;5.69;97.98;102730.06;5035685;28;20026;-71
2023/05/18 02:46:03;;;;;;;10.63;4.70;;;;;;;5.68;98.76;102738.66;5034100;28;20495;-70
2023/05/18 02:48:28;;;;;;;11.52;4.70;;;;;;;5.66;99.02;102738.66;5035555;28;20025;-71
2023/05/18 02:50:54;;;;;;;8.98;4.18;;;;;;;5.69;99.57;102733.56;5035155;28;20028;-71
2023/05/18 02:53:20;;;;;;;12.77;4.53;;;;;;;5.64;99.24;102733.41;5044089;28;20116;-70
2023/05/18 02:55:46;;;;;;;10.00;4.70;;;;;;;5.65;98.52;102734.28;5042567;28;20064;-71
2023/05/18 02:58:15;;;;;;;9.80;4.70;;;;;;;5.59;99.40;102734.13;5035155;28;20434;-70
2023/05/18 03:00:40;;;;;;;13.27;4.78;;;;;;;5.64;99.56;102733.41;5036122;28;20096;-71
2023/05/18 03:03:09;;;;;;;13.02;4.45;;;;;;;5.60;99.46;102729.00;5039756;28;20529;-71
2023/05/18 03:05:35;;;;;;;11.38;4.22;;;;;;;5.61;98.99;102732.47;5037898;28;20792;-71
2023/05/18 03:08:01;;;;;;;14.60;5.13;;;;;;;5.58;99.10;102745.31;5034984;28;20084;-71
2023/05/18 03:10:26;;;;;;;12.27;4.30;;;;;;;5.56;99.69;102744.41;5046990;28;20373;-70
2023/05/18 03:12:51;;;;;;;9.90;4.45;;;;;;;5.48;100.00;102736.41;5035276;28;20420;-71
2023/05/18 03:15:17;;;;;;;16.60;5.25;;;;;;;5.40;100.00;102718.09;5038165;28;20043;-70
2023/05/18 03:17:42;;;;;;;15.10;4.20;;;;;;;5.47;100.00;102731.22;5044822;28;20029;-71
2023/05/18 03:20:13;;;;;;;11.52;4.45;;;;;;;5.44;100.00;102744.06;5034293;28;20025;-70
2023/05/18 03:22:39;;;;;;;12.00;4.80;;;;;;;5.35;100.00;102726.56;5034968;28;20032;-70
2023/05/18 03:25:05;;;;;;;11.95;4.93;;;;;;;5.35;100.00;102735.19;5034967;28;20374;-70
2023/05/18 03:27:30;;;;;;;14.18;5.05;;;;;;;5.33;100.00;102735.97;5034295;28;20079;-71
2023/05/18 03:29:56;;;;;;;14.48;5.35;;;;;;;5.36;100.00;102746.41;5034515;28;20052;-71
2023/05/18 03:32:23;;;;;;;13.10;4.68;;;;;;;5.37;100.00;102743.00;5034528;28;20231;-70
2023/05/18 03:34:49;;;;;;;7.82;4.50;;;;;;;5.33;100.00;102739.47;5033713;28;20385;-71
2023/05/18 03:37:15;;;;;;;8.95;4.32;;;;;;;5.33;100.00;102731.72;5034765;28;20053;-71
2023/05/18 03:39:41;;;;;;;10.18;4.72;;;;;;;5.35;100.00;102740.38;5033749;28;20461;-71
2023/05/18 03:42:06;;;;;;;11.45;4.68;;;;;;;5.13;100.00;102713.03;5033839;28;20432;-70
2023/05/18 03:44:31;;;;;;;10.30;5.10;;;;;;;5.25;100.00;102740.94;5034418;28;20081;-70
2023/05/18 03:46:57;;;;;;;13.75;4.90;;;;;;;5.25;100.00;102738.34;5034430;28;20100;-71
2023/05/18 03:49:22;;;;;;;10.70;4.38;;;;;;;5.21;100.00;102739.09;5033894;28;20013;-70
2023/05/18 03:51:47;;;;;;;10.45;4.88;;;;;;;5.22;100.00;102746.03;5033998;28;20124;-71
2023/05/18 03:54:12;;;;;;;12.63;4.68;;;;;;;5.26;100.00;102747.84;5034473;28;20057;-70
2023/05/18 03:56:38;;;;;;;10.35;5.00;;;;;;;5.20;100.00;102742.53;5033417;28;20031;-71
2023/05/18 03:59:03;;;;;;;11.35;4.85;;;;;;;5.21;100.00;102741.69;5034335;28;20029;-70
2023/05/18 04:01:32;;;;;;;9.23;4.90;;;;;;;5.21;100.00;102746.84;5033732;28;20052;-71
2023/05/18 04:03:58;;;;;;;10.23;4.53;;;;;;;5.19;100.00;102751.09;5042498;28;20025;-71
2023/05/18 04:06:25;;;;;;;14.90;5.25;;;;;;;5.25;100.00;102756.47;5036798;28;20040;-71
2023/05/18 04:08:51;;;;;;;10.68;5.05;;;;;;;5.25;100.00;102747.81;5033344;28;20033;-71
2023/05/18 04:11:16;;;;;;;13.45;5.82;;;;;;;5.32;100.00;102750.63;5038632;28;20056;-71
2023/05/18 04:13:42;;;;;;;12.38;6.43;;;;;;;5.38;100.00;102750.81;5036947;28;20369;-71
2023/05/18 04:16:11;;;;;;;13.65;6.53;;;;;;;5.42;100.00;102756.94;5034289;28;20022;-71
2023/05/18 04:18:37;;;;;;;16.20;6.38;;;;;;;5.39;100.00;102757.75;5034847;28;20500;-71
2023/05/18 04:21:02;;;;;;;12.18;5.53;;;;;;;5.41;100.00;102752.59;5035576;28;20029;-71
2023/05/18 04:23:27;;;;;;;16.02;6.53;;;;;;;5.49;100.00;102763.16;5036822;28;20064;-71
2023/05/18 04:25:53;;;;;;;10.77;6.47;;;;;;;5.47;100.00;102772.59;5036339;28;20480;-71
2023/05/18 04:28:18;;;;;;;10.82;5.82;;;;;;;5.48;100.00;102764.88;5035730;28;20024;-71
2023/05/18 04:30:44;;;;;;;14.15;5.72;;;;;;;5.47;100.00;102754.50;5040257;28;20018;-71
2023/05/18 04:33:11;;;;;;;12.05;5.30;;;;;;;5.53;100.00;102765.03;5043794;28;20034;-71
2023/05/18 04:35:36;;;;;;;12.23;5.35;;;;;;;5.48;100.00;102764.88;5034510;28;20481;-71
2023/05/18 04:38:02;;;;;;;10.27;5.55;;;;;;;5.54;100.00;102771.94;5044948;28;20039;-71
2023/05/18 04:40:27;;;;;;;13.73;6.10;;;;;;;5.50;100.00;102764.94;5034811;28;20029;-70
2023/05/18 04:42:52;;;;;;;12.65;5.80;;;;;;;5.52;100.00;102765.81;5034120;28;20029;-70
2023/05/18 04:45:19;;;;;;;18.08;6.60;;;;;;;5.60;100.00;102767.81;5037410;28;20485;-70
2023/05/18 04:47:46;;;;;;;13.07;6.03;;;;;;;5.64;100.00;102774.81;5034285;28;20113;-71
2023/05/18 04:50:16;;;;;;;12.90;5.93;;;;;;;5.67;100.00;102766.28;5038217;28;20128;-71
2023/05/18 04:52:49;;;;;;;14.82;6.13;;;;;;;5.68;100.00;102769.72;5039931;28;20033;-71
2023/05/18 04:55:18;;;;;;;15.75;6.68;;;;;;;5.68;100.00;102774.91;5033435;28;20025;-71
2023/05/18 04:57:44;;;;;;;14.77;6.90;;;;;;;5.69;100.00;102782.72;5038250;28;20051;-71
2023/05/18 05:00:11;;;;;;;17.35;6.55;;;;;;;5.69;100.00;102785.31;5034601;28;20021;-70
2023/05/18 05:02:36;;;;;;;14.07;6.40;;;;;;;5.69;100.00;102777.53;5035645;28;20033;-71
2023/05/18 05:05:02;;;;;;;15.50;6.38;;;;;;;5.74;100.00;102781.13;5040367;28;20037;-71
2023/05/18 05:07:27;;;;;;;14.75;6.07;;;;;;;5.79;100.00;102782.13;5034999;28;20036;-71
2023/05/18 05:09:52;;;;;;;13.10;6.43;;;;;;;5.87;100.00;102783.19;5034600;28;20018;-71
2023/05/18 05:12:18;;;;;;;14.07;6.22;;;;;;;5.98;100.00;102780.06;5041978;28;20065;-71
2023/05/18 05:14:43;;;;;;;13.30;6.07;;;;;;;6.04;100.00;102775.91;5033580;28;20358;-71
2023/05/18 05:17:08;;;;;;;15.68;5.63;;;;;;;6.04;99.94;102765.56;5036709;28;20132;-71
2023/05/18 05:19:33;;;;;;;14.80;5.68;;;;;;;6.15;99.48;102775.31;5042202;28;20544;-71
2023/05/18 05:21:59;;;;;;;15.00;5.65;;;;;;;6.17;99.07;102777.09;5044379;28;20028;-70
2023/05/18 05:24:24;;;;;;;14.90;5.50;;;;;;;6.22;98.76;102780.72;5032915;28;20018;-71
2023/05/18 05:26:50;;;;;;;10.85;5.30;;;;;;;6.26;99.09;102779.06;5044153;28;20384;-71
2023/05/18 05:29:15;;;;;;;12.48;5.82;;;;;;;6.35;99.40;102787.06;5041581;28;20507;-71
2023/05/18 05:31:40;;;;;;;12.93;5.45;;;;;;;6.42;98.74;102783.78;5046717;28;20028;-71
2023/05/18 05:34:06;;;;;;;13.25;6.03;;;;;;;6.42;97.03;102782.91;5032935;28;20033;-71
2023/05/18 05:36:32;;;;;;;13.40;5.80;;;;;;;6.48;98.02;102781.34;5033809;28;20388;-71
2023/05/18 05:38:57;;;;;;;13.25;5.78;;;;;;;6.50;97.31;102781.38;5032437;28;20025;-71
2023/05/18 05:41:23;;;;;;;12.57;5.72;;;;;;;6.49;96.44;102784.81;5037077;28;20105;-71
2023/05/18 05:43:48;;;;;;;12.18;6.20;;;;;;;6.49;96.10;102783.09;5032933;28;20034;-71
2023/05/18 05:46:13;;;;;;;14.43;6.00;;;;;;;6.54;96.92;102788.41;5034498;28;20519;-71
2023/05/18 05:48:39;;;;;;;16.42;6.28;;;;;;;6.66;96.46;102783.50;5033489;28;20113;-71
2023/05/18 05:51:04;;;;;;;12.82;5.80;;;;;;;6.80;95.02;102787.31;5041190;28;20051;-71
2023/05/18 05:53:30;;;;;;;14.73;5.63;;;;;;;6.92;95.12;102781.50;5039039;28;20116;-71
2023/05/18 05:55:55;;;;;;;12.02;6.25;;;;;;;7.00;92.95;102785.16;5037413;28;20037;-71
2023/05/18 05:58:20;;;;;;;9.15;5.40;;;;;;;7.10;92.19;102780.19;5032614;28;20084;-71
2023/05/18 06:00:46;;;;;;;13.75;6.25;;;;;;;7.15;92.38;102784.59;5032107;28;20072;-71
2023/05/18 06:03:11;;;;;;;13.30;5.68;;;;;;;7.19;90.80;102783.84;5035036;28;20028;-71
2023/05/18 06:05:36;;;;;;;14.68;5.70;;;;;;;7.18;91.24;102787.28;5036199;28;20071;-70
2023/05/18 06:08:02;;;;;;;16.33;5.88;;;;;;;7.13;90.95;102778.53;5029391;28;20052;-71
2023/05/18 06:10:27;;;;;;;14.95;5.88;;;;;;;7.23;90.06;102784.78;5039310;28;20017;-71
2023/05/18 06:12:52;;;;;;;10.07;5.45;;;;;;;7.29;89.57;102787.50;5038476;28;20033;-70
2023/05/18 06:15:18;;;;;;;16.70;5.78;;;;;;;7.32;89.28;102782.38;5041530;28;20029;-71
2023/05/18 06:17:44;;;;;;;12.00;5.95;;;;;;;7.35;89.91;102778.97;5037872;28;20098;-71
2023/05/18 06:20:10;;;;;;;11.88;5.22;;;;;;;7.47;89.76;102782.69;5050133;28;20096;-70
2023/05/18 06:22:35;;;;;;;14.43;6.28;;;;;;;7.47;87.56;102792.22;5035309;28;20029;-71
2023/05/18 06:25:00;;;;;;;10.98;5.35;;;;;;;7.47;88.11;102782.69;5035673;28;20029;-71
2023/05/18 06:27:26;;;;;;;13.48;5.65;;;;;;;7.46;88.74;102778.38;5033415;28;20068;-71
2023/05/18 06:29:51;;;;;;;15.00;5.85;;;;;;;7.53;87.27;102784.56;5040908;28;20025;-70
2023/05/18 06:32:17;;;;;;;18.13;5.80;;;;;;;7.56;88.05;102794.13;5039574;28;20489;-70
2023/05/18 06:34:44;;;;;;;15.95;6.18;;;;;;;7.54;86.97;102782.81;5034853;28;20030;-71
2023/05/18 06:37:10;;;;;;;13.52;5.80;;;;;;;7.65;87.33;102789.09;5038510;28;20108;-70
2023/05/18 06:39:35;;;;;;;12.65;5.68;;;;;;;7.84;85.40;102787.72;5044064;28;20155;-70
2023/05/18 06:42:01;;;;;;;14.85;6.43;;;;;;;7.89;84.62;102791.31;5042905;28;20399;-71
2023/05/18 06:44:26;;;;;;;16.58;6.20;;;;;;;7.95;84.69;102792.28;5033714;28;20176;-70
2023/05/18 06:46:51;;;;;;;12.18;5.93;;;;;;;8.15;84.91;102800.44;5035347;28;20044;-71
2023/05/18 06:49:16;;;;;;;16.48;6.75;;;;;;;8.29;85.18;102792.00;5035404;28;20033;-70
2023/05/18 06:51:42;;;;;;;13.85;5.85;;;;;;;8.45;83.59;102804.44;5038783;28;20029;-71
2023/05/18 06:54:08;;;;;;;17.58;6.03;;;;;;;8.60;83.06;102793.41;5046169;28;20028;-71
2023/05/18 06:56:33;;;;;;;10.90;5.80;;;;;;;8.78;80.66;102792.84;5038918;28;20503;-70
2023/05/18 06:58:58;;;;;;;13.45;6.03;;;;;;;8.94;83.18;102794.81;5031560;28;20033;-71
2023/05/18 07:01:24;;;;;;;14.00;5.72;;;;;;;9.05;81.04;102795.81;5040485;28;20037;-71
2023/05/18 07:03:49;;;;;;;11.75;5.88;;;;;;;9.16;79.24;102806.41;5035774;28;20044;-71
2023/05/18 07:06:14;;;;;;;13.75;5.40;;;;;;;9.20;77.69;102795.16;5024683;28;20026;-71
2023/05/18 07:08:39;;;;;;;13.35;5.35;;;;;;;9.32;77.74;102803.16;5021388;28;20037;-78
2023/05/18 07:11:05;;;;;;;14.32;5.68;;;;;;;9.48;78.20;102805.94;5024121;28;20025;-71
2023/05/18 07:13:31;;;;;;;13.57;6.20;;;;;;;9.63;77.64;102805.25;5017219;28;20037;-71
2023/05/18 07:15:57;;;;;;;13.00;5.80;;;;;;;9.63;74.53;102802.66;5021554;28;20033;-71
2023/05/18 07:18:22;;;;;;;10.77;5.25;;;;;;;9.66;77.02;102819.19;5026392;28;20033;-79
2023/05/18 07:20:47;;;;;;;13.80;5.63;;;;;;;9.52;74.91;102779.97;5041137;28;20049;-79
2023/05/18 07:23:13;;;;;;;12.85;5.30;;;;;;;9.68;75.83;102786.22;5040119;28;20038;-72
2023/05/18 07:25:38;;;;;;;15.23;5.70;;;;;;;9.90;75.36;102813.38;5034776;28;20021;-74
2023/05/18 07:28:04;;;;;;;12.05;5.00;;;;;;;9.91;75.90;102809.94;5041939;28;20037;-71
2023/05/18 07:30:29;;;;;;;14.35;5.60;;;;;;;9.90;73.94;102802.94;5038505;28;20036;-75
2023/05/18 07:32:55;;;;;;;12.88;5.93;;;;;;;9.91;71.94;102809.03;5038051;28;20420;-71
2023/05/18 07:35:25;;;;;;;12.20;5.00;;;;;;;9.88;72.79;102802.06;5033862;28;20469;-71
2023/05/18 07:37:51;;;;;;;12.23;5.55;;;;;;;9.95;73.27;102811.69;5034155;28;20033;-71
2023/05/18 07:40:16;;;;;;;11.05;4.97;;;;;;;10.05;72.32;102810.94;5043224;28;20033;-71
2023/05/18 07:42:42;;;;;;;11.90;6.15;;;;;;;10.13;72.08;102813.59;5032554;28;20172;-71
2023/05/18 07:45:08;;;;;;;13.05;5.57;;;;;;;10.20;72.66;102809.31;5035528;28;20065;-73
2023/05/18 07:47:33;;;;;;;15.45;5.60;;;;;;;10.40;72.82;102817.34;5033455;28;20117;-72
2023/05/18 07:49:59;;;;;;;16.52;5.15;;;;;;;10.55;71.27;102823.56;5041169;28;20434;-73
2023/05/18 07:52:24;;;;;;;13.25;6.03;;;;;;;10.63;70.04;102817.56;5038045;28;20033;-71
2023/05/18 07:54:50;;;;;;;14.95;6.20;;;;;;;10.73;70.22;102822.00;5038462;28;20048;-72
2023/05/18 07:57:15;;;;;;;15.77;6.13;;;;;;;10.64;68.66;102820.19;5033465;28;20025;-71
2023/05/18 07:59:41;;;;;;;12.77;5.68;;;;;;;10.65;68.45;102826.25;5031423;28;20033;-71
2023/05/18 08:02:06;;;;;;;17.10;6.03;;;;;;;10.73;71.69;102827.22;5036670;28;20507;-70
2023/05/18 08:04:31;;;;;;;12.40;5.53;;;;;;;10.81;69.55;102822.91;5034253;28;20473;-72
2023/05/18 08:06:59;;;;;;;13.30;5.93;;;;;;;10.86;68.00;102816.00;5034577;28;20039;-71
2023/05/18 08:09:25;;;;;;;11.00;5.15;;;;;;;11.01;68.77;102829.13;5033035;28;20108;-72
2023/05/18 08:11:51;;;;;;;11.82;5.70;;;;;;;11.14;69.51;102826.59;5033438;28;20029;-72
2023/05/18 08:14:16;;;;;;;12.23;5.95;;;;;;;11.22;68.01;102827.53;5033452;28;20105;-72
2023/05/18 08:16:41;;;;;;;13.60;6.28;;;;;;;11.34;70.45;102824.97;5033085;28;20453;-72
2023/05/18 08:19:06;;;;;;;12.63;6.80;;;;;;;11.28;64.90;102824.97;5033957;28;20079;-72
2023/05/18 08:21:32;;;;;;;11.82;5.78;;;;;;;11.20;66.17;102826.63;5034069;28;20044;-71
2023/05/18 08:23:57;;;;;;;12.63;6.60;;;;;;;11.16;65.14;102824.88;5032687;28;20025;-72
2023/05/18 08:26:23;;;;;;;10.75;5.65;;;;;;;11.08;65.90;102817.00;5034041;28;20022;-72
2023/05/18 08:28:48;;;;;;;11.73;5.95;;;;;;;11.00;67.85;102818.69;5032755;28;20457;-72
2023/05/18 08:31:14;;;;;;;10.90;5.68;;;;;;;11.04;68.02;102817.84;5033606;28;20017;-72
2023/05/18 08:33:40;;;;;;;12.88;5.70;;;;;;;11.02;64.92;102815.25;5033539;28;20032;-72
2023/05/18 08:36:07;;;;;;;16.50;6.05;;;;;;;10.90;66.80;102817.75;5033073;28;20018;-72
2023/05/18 08:38:33;;;;;;;17.70;5.85;;;;;;;11.05;65.66;102806.53;5033616;28;20038;-72
2023/05/18 08:41:11;;;;;;;12.30;5.68;;;;;;;11.44;63.36;102813.72;5033052;28;20026;-71
2023/05/18 08:43:40;;;;;;;11.80;5.18;;;;;;;11.55;62.99;102803.31;5032523;28;20025;-72
2023/05/18 08:46:27;;;;;;;12.25;5.45;;;;;;;11.55;61.84;102803.31;5033474;28;20029;-72
2023/05/18 08:48:54;;;;;;;12.05;5.03;;;;;;;11.79;62.38;102801.63;5033456;28;20044;-72
2023/05/18 08:51:20;;;;;;;13.43;5.70;;;;;;;12.04;60.75;102800.00;5032616;28;20097;-72
2023/05/18 08:53:52;;;;;;;10.52;6.22;;;;;;;12.17;61.20;102805.22;5033322;28;20037;-72
2023/05/18 08:56:21;;;;;;;11.30;4.65;;;;;;;12.14;58.36;102793.91;5033083;28;20469;-71
2023/05/18 08:58:49;;;;;;;12.57;4.78;;;;;;;12.17;59.87;102786.06;5032429;28;20036;-72
2023/05/18 09:01:14;;;;;;;10.85;4.50;;;;;;;12.61;58.42;102786.03;5033094;28;20990;-72
2023/05/18 09:03:40;;;;;;;13.98;4.78;;;;;;;12.99;56.84;102792.09;5033156;28;20488;-72
2023/05/18 09:06:06;;;;;;;14.40;5.15;;;;;;;13.14;55.88;102784.19;5032476;28;20025;-72
2023/05/18 09:08:32;;;;;;;8.98;4.50;;;;;;;13.35;54.35;102784.16;5032945;28;20021;-72
2023/05/18 09:11:00;;;;;;;12.85;5.32;;;;;;;13.36;53.28;102779.78;5032472;28;20029;-72
2023/05/18 09:13:26;;;;;;;12.18;4.88;;;;;;;13.18;56.22;102778.09;5032627;28;20057;-72
2023/05/18 09:15:52;;;;;;;9.68;4.50;;;;;;;13.19;54.47;102790.28;5032883;28;20022;-72
2023/05/18 09:18:17;;;;;;;10.23;3.70;;;;;;;13.09;53.36;102784.22;5032442;28;20528;-72
2023/05/18 09:20:44;;;;;;;10.07;4.93;;;;;;;13.07;53.59;102785.94;5032683;28;20045;-72
2023/05/18 09:23:11;;;;;;;11.55;4.57;;;;;;;13.01;53.65;102779.88;5032763;28;20413;-72
2023/05/18 09:25:43;;;;;;;9.48;4.10;;;;;;;13.04;54.65;102788.56;5032180;28;20048;-72
2023/05/18 09:28:09;;;;;;;8.13;4.38;;;;;;;12.84;52.55;102786.00;5032974;28;20045;-72
2023/05/18 09:30:42;;;;;;;12.48;4.82;;;;;;;12.94;53.16;102788.59;5032623;28;20029;-72
2023/05/18 09:33:17;;;;;;;12.07;4.65;;;;;;;13.45;55.28;102787.59;5032100;28;20033;-72
2023/05/18 09:35:45;;;;;;;15.73;4.72;;;;;;;13.73;52.22;102775.25;5032128;28;20029;-72
2023/05/18 09:38:11;;;;;;;9.40;4.30;;;;;;;13.96;51.75;102775.09;5032421;28;20023;-72
2023/05/18 09:40:36;;;;;;;11.50;4.07;;;;;;;13.87;49.27;102772.53;5032003;28;20025;-72
2023/05/18 09:43:06;;;;;;;10.88;4.57;;;;;;;13.70;49.67;102772.63;5032526;28;20058;-72
2023/05/18 09:45:31;;;;;;;10.98;4.20;;;;;;;14.14;53.62;102775.84;5032409;28;20117;-72
2023/05/18 09:47:57;;;;;;;10.45;4.15;;;;;;;14.26;48.81;102770.50;5031629;28;20556;-72
2023/05/18 09:50:23;;;;;;;11.30;3.97;;;;;;;14.22;48.72;102777.53;5032698;28;20029;-72
2023/05/18 09:52:49;;;;;;;10.05;3.92;;;;;;;14.32;49.75;102772.19;5032207;28;20106;-72
2023/05/18 09:55:16;;;;;;;9.80;4.13;;;;;;;14.50;48.09;102785.16;5031883;28;20117;-72
2023/05/18 09:57:47;;;;;;;9.60;4.32;;;;;;;14.51;45.72;102773.78;5032232;28;20022;-72
2023/05/18 10:00:18;;;;;;;9.43;4.30;;;;;;;14.47;47.47;102766.81;5031699;28;20018;-72
2023/05/18 10:02:49;;;;;;;12.35;4.10;;;;;;;14.46;47.73;102767.69;5031852;28;20029;-72
2023/05/18 10:05:19;;;;;;;10.45;4.25;;;;;;;14.70;49.16;102762.22;5032609;28;20022;-72
2023/05/18 10:07:45;;;;;;;7.88;3.90;;;;;;;14.88;47.15;102757.69;5031361;28;20079;-72
2023/05/18 10:10:10;;;;;;;9.73;4.10;;;;;;;15.07;50.17;102759.19;5032443;28;20025;-72
2023/05/18 10:12:38;;;;;;;6.90;3.90;;;;;;;15.26;47.36;102753.72;5032502;28;20168;-72
2023/05/18 10:15:08;;;;;;;10.90;3.97;;;;;;;15.33;46.99;102752.75;5031469;28;20032;-72
2023/05/18 10:17:36;;;;;;;11.68;4.35;;;;;;;15.17;45.08;102726.69;5032311;28;20041;-72
2023/05/18 10:20:04;;;;;;;9.13;4.00;;;;;;;15.35;45.11;102751.84;5032089;28;20112;-72
2023/05/18 10:22:33;;;;;;;8.98;4.05;;;;;;;15.43;45.81;102751.75;5031507;28;20431;-72
2023/05/18 10:25:00;;;;;;;13.00;4.72;;;;;;;15.50;46.12;102745.53;5031783;28;20037;-72
2023/05/18 10:27:27;;;;;;;10.93;4.43;;;;;;;15.54;47.19;102754.25;5032173;28;20025;-72
2023/05/18 10:29:56;;;;;;;11.90;4.65;;;;;;;15.50;45.00;102752.53;5031151;28;20033;-72
2023/05/18 10:32:24;;;;;;;10.40;4.93;;;;;;;15.45;45.85;102755.22;5032310;28;20052;-72
2023/05/18 10:34:51;;;;;;;13.52;4.30;;;;;;;15.46;46.13;102741.19;5031930;28;20025;-71
2023/05/18 10:37:20;;;;;;;9.57;4.60;;;;;;;15.45;45.99;102750.84;5031303;28;20014;-72
2023/05/18 10:39:49;;;;;;;9.70;4.30;;;;;;;15.42;44.93;102742.13;5031712;28;20037;-72
2023/05/18 10:42:17;;;;;;;8.55;4.28;;;;;;;15.31;45.49;102746.69;5031793;28;20026;-72
2023/05/18 10:44:44;;;;;;;10.15;4.45;;;;;;;15.15;46.06;102743.38;5030739;28;20099;-72
2023/05/18 10:47:10;;;;;;;11.45;4.50;;;;;;;14.95;46.26;102735.72;5031994;28;20025;-72
2023/05/18 10:49:36;;;;;;;10.65;4.43;;;;;;;14.72;45.58;102735.97;5035145;28;20021;-72
2023/05/18 10:52:02;;;;;;;11.75;4.95;;;;;;;14.57;45.46;102720.38;5035225;28;20069;-72
2023/05/18 10:54:29;;;;;;;10.57;5.10;;;;;;;14.52;47.27;102741.44;5035872;28;20112;-72
2023/05/18 10:56:55;;;;;;;9.18;4.90;;;;;;;14.75;48.37;102738.56;5034724;28;20017;-72
2023/05/18 10:59:23;;;;;;;10.80;4.65;;;;;;;15.06;46.54;102746.97;5035373;28;20473;-72
2023/05/18 11:01:52;;;;;;;8.30;4.70;;;;;;;15.32;45.72;102735.25;5035221;28;20095;-71
2023/05/18 11:04:25;;;;;;;7.38;4.57;;;;;;;15.51;45.15;102726.25;5034729;28;20026;-71
2023/05/18 11:06:58;;;;;;;;;;;;;;;15.77;47.07;102731.16;5035464;28;20032;-72
2023/05/18 11:09:25;;;;;;;10.10;4.78;;;;;;;15.74;43.73;102725.06;5035084;28;20364;-72
2023/05/18 11:11:52;;;;;;;5.80;4.05;;;;;;;15.73;43.84;102726.84;5034425;28;20084;-72
2023/05/18 11:14:26;;;;;;;8.75;4.65;;;;;;;15.65;44.15;102719.00;5035247;28;20044;-72
2023/05/18 11:16:52;;;;;;;10.75;5.25;;;;;;;15.68;44.18;102726.03;5035029;28;20403;-72
2023/05/18 11:19:19;;;;;;;12.48;4.78;;;;;;;15.70;43.78;102723.41;5034342;28;20496;-72
2023/05/18 11:21:45;;;;;;;7.18;4.35;;;;;;;15.79;43.95;102723.22;5034829;28;20095;-72